Aegean Pride — ELXK8 — position and weather

sailwx.info

Track history (hours):
 
Tides and Currents Weather Stations Pressure Air Temp Water Temp Dewpoint Dewpoint Depression Visibility Wind Speed Wind Dir Waves Ship Positions

Aegean Pride

Last reported at 2015-Jan-23 04:32 UTC. Time now 2015-Feb-01 13:19 UTC.
Position N 30°56' E 032°19'.
Warning: this ship's position is 9 days out of date.

Length 243 m; draft 13.3 m.

Type: Ship. MMSI: 636011186.

Date/timePositionNaut miles runAvg speedWind from/ knotsBaromVisibWave heightAir tempDewpointWater temp
2015-Jan-23 04:32N 30°56' E 032°19'10 8.9
2015-Jan-23 03:24N 31°06' E 032°18'8 8.1
2015-Jan-23 02:22N 31°14' E 032°21'14 4.6
2015-Jan-22 23:22N 31°28' E 032°19'0 0.0
2015-Jan-22 22:28N 31°28' E 032°19'0 0.0
2015-Jan-22 21:28N 31°28' E 032°19'0 0.0
2015-Jan-22 20:31N 31°28' E 032°19'0 0.0
2015-Jan-22 19:16N 31°28' E 032°19'0 0.0
2015-Jan-22 18:19N 31°28' E 032°19'0 0.0
2015-Jan-22 15:28N 31°28' E 032°19'0 0.0
2015-Jan-22 14:28N 31°28' E 032°19'128 9.0
2015-Jan-22 00:12N 32°49' E 030°22'30811.3
2015-Jan-20 21:03N 35°56' E 025°26'510.4
2015-Jan-20 20:33N 35°59' E 025°21'1110.1
2015-Jan-20 19:30N 36°05' E 025°10'1010.3
2015-Jan-20 18:34N 36°10' E 025°00'1010.3
2015-Jan-20 17:33N 36°16' E 024°50'9610.5
2015-Jan-20 08:27N 37°36' E 023°44'1011.2
2015-Jan-20 07:34N 37°45' E 023°39'8 8.2
2015-Jan-20 06:33N 37°51' E 023°32'0 0.3
2015-Jan-20 05:33N 37°52' E 023°32'0 0.0
2015-Jan-20 04:27N 37°52' E 023°32'0 0.0
2015-Jan-20 03:33N 37°52' E 023°32'0 0.0
2015-Jan-20 02:27N 37°52' E 023°32'0 0.0
2015-Jan-20 01:21N 37°52' E 023°32'0 0.0
2015-Jan-20 00:33N 37°52' E 023°32'0 0.0
2015-Jan-19 23:33N 37°52' E 023°32'0 0.0
2015-Jan-19 22:33N 37°51' E 023°32'0 0.0
2015-Jan-19 21:33N 37°51' E 023°32'0 0.1
2015-Jan-19 20:33N 37°52' E 023°32'0 0.0
2015-Jan-19 19:33N 37°52' E 023°32'0 0.1
2015-Jan-19 18:33N 37°51' E 023°32'0 0.1
2015-Jan-19 17:33N 37°52' E 023°32'0 0.0
2015-Jan-19 16:33N 37°52' E 023°32'0 0.0
2015-Jan-19 15:33N 37°52' E 023°32'0 0.0
2015-Jan-19 14:33N 37°52' E 023°32'0 0.0
2015-Jan-19 13:33N 37°52' E 023°32'0 0.0
2015-Jan-19 12:33N 37°52' E 023°32'0 0.1
2015-Jan-19 11:34N 37°52' E 023°32'0 0.1
2015-Jan-19 10:33N 37°52' E 023°32'2 1.5
2015-Jan-19 09:34N 37°51' E 023°34'6 6.0
2015-Jan-19 08:33N 37°49' E 023°40'1212.0
2015-Jan-19 07:33N 37°39' E 023°49'15410.9
2015-Jan-18 17:25N 39°44' E 025°43'1111.2
2015-Jan-18 16:24N 39°54' E 025°50'1111.3
2015-Jan-18 15:27N 40°01' E 026°01'3210.9
2015-Jan-18 12:31N 40°19' E 026°36'13 9.3
2015-Jan-18 11:10N 40°27' E 026°48'610.3
2015-Jan-18 10:33N 40°30' E 026°55'  
2015-Jan-16 04:26N 40°34' E 027°17'  
2015-Jan-13 21:33N 41°27' E 029°26'  
Track history (hours):
 
Tides and Currents Weather Stations Pressure Air Temp Water Temp Dewpoint Dewpoint Depression Visibility Wind Speed Wind Dir Waves Ship Positions

Aegean Pride

Last reported at 2015-Jan-23 04:32 UTC. Time now 2015-Feb-01 13:19 UTC.
Position N 30°56' E 032°19'.
Warning: this ship's position is 9 days out of date.

Length 243 m; draft 13.3 m.

Type: Ship. MMSI: 636011186.

Date/timePositionNaut miles runAvg speedWind from/ knotsBaromVisibWave heightAir tempDewpointWater temp
2015-Jan-23 04:32N 30°56' E 032°19'10 8.9
2015-Jan-23 03:24N 31°06' E 032°18'8 8.1
2015-Jan-23 02:22N 31°14' E 032°21'14 4.6
2015-Jan-22 23:22N 31°28' E 032°19'0 0.0
2015-Jan-22 22:28N 31°28' E 032°19'0 0.0
2015-Jan-22 21:28N 31°28' E 032°19'0 0.0
2015-Jan-22 20:31N 31°28' E 032°19'0 0.0
2015-Jan-22 19:16N 31°28' E 032°19'0 0.0
2015-Jan-22 18:19N 31°28' E 032°19'0 0.0
2015-Jan-22 15:28N 31°28' E 032°19'0 0.0
2015-Jan-22 14:28N 31°28' E 032°19'128 9.0
2015-Jan-22 00:12N 32°49' E 030°22'30811.3
2015-Jan-20 21:03N 35°56' E 025°26'510.4
2015-Jan-20 20:33N 35°59' E 025°21'1110.1
2015-Jan-20 19:30N 36°05' E 025°10'1010.3
2015-Jan-20 18:34N 36°10' E 025°00'1010.3
2015-Jan-20 17:33N 36°16' E 024°50'9610.5
2015-Jan-20 08:27N 37°36' E 023°44'1011.2
2015-Jan-20 07:34N 37°45' E 023°39'8 8.2
2015-Jan-20 06:33N 37°51' E 023°32'0 0.3
2015-Jan-20 05:33N 37°52' E 023°32'0 0.0
2015-Jan-20 04:27N 37°52' E 023°32'0 0.0
2015-Jan-20 03:33N 37°52' E 023°32'0 0.0
2015-Jan-20 02:27N 37°52' E 023°32'0 0.0
2015-Jan-20 01:21N 37°52' E 023°32'0 0.0
2015-Jan-20 00:33N 37°52' E 023°32'0 0.0
2015-Jan-19 23:33N 37°52' E 023°32'0 0.0
2015-Jan-19 22:33N 37°51' E 023°32'0 0.0
2015-Jan-19 21:33N 37°51' E 023°32'0 0.1
2015-Jan-19 20:33N 37°52' E 023°32'0 0.0
2015-Jan-19 19:33N 37°52' E 023°32'0 0.1
2015-Jan-19 18:33N 37°51' E 023°32'0 0.1
2015-Jan-19 17:33N 37°52' E 023°32'0 0.0
2015-Jan-19 16:33N 37°52' E 023°32'0 0.0
2015-Jan-19 15:33N 37°52' E 023°32'0 0.0
2015-Jan-19 14:33N 37°52' E 023°32'0 0.0
2015-Jan-19 13:33N 37°52' E 023°32'0 0.0
2015-Jan-19 12:33N 37°52' E 023°32'0 0.1
2015-Jan-19 11:34N 37°52' E 023°32'0 0.1
2015-Jan-19 10:33N 37°52' E 023°32'2 1.5
2015-Jan-19 09:34N 37°51' E 023°34'6 6.0
2015-Jan-19 08:33N 37°49' E 023°40'1212.0
2015-Jan-19 07:33N 37°39' E 023°49'15410.9
2015-Jan-18 17:25N 39°44' E 025°43'1111.2
2015-Jan-18 16:24N 39°54' E 025°50'1111.3
2015-Jan-18 15:27N 40°01' E 026°01'3210.9
2015-Jan-18 12:31N 40°19' E 026°36'13 9.3
2015-Jan-18 11:10N 40°27' E 026°48'610.3
2015-Jan-18 10:33N 40°30' E 026°55'  
2015-Jan-16 04:26N 40°34' E 027°17'  
2015-Jan-13 21:33N 41°27' E 029°26'  

Dump ship's entire track history